Estación Meteorológica Peña el Pijo (Robertgarden) [ 07/21/17 06:29:56 CEST ]

Fecha Hora Presion(HPa) Temp (°C) Humedad % Rocio (°C) Viento ( m/s) Direccion Lluvia 1Hora(mm) Lluvia 24H(mm) LLuvia Total(mm)
2017-Apr-06 01:01:27 1010.400 5.1 72 0.5         1357.67
2017-Apr-06 02:01:55 1010.200 5.2 73 0.7         1357.67
2017-Apr-06 03:01:48 1009.900 4.1 76 0.2         1357.67
2017-Apr-06 04:03:45 1009.900 3.3 77 -0.3         1357.67
2017-Apr-06 05:04:16 1009.800 2.8 79 -0.5         1357.67
2017-Apr-06 06:01:39 1009.100 2.8 80 -0.3         1357.67
2017-Apr-06 07:02:10 1009.200 2.1 81 -0.8         1357.67
2017-Apr-06 08:01:41 1009.600 1.8 82 -1.0         1357.67
2017-Apr-06 09:01:47 1010.000 3.0 83 0.4         1357.67
2017-Apr-06 10:01:55 1010.300 6.5 82 3.6         1357.67
2017-Apr-06 11:01:43 1010.500 10.3 69 4.9         1357.67
2017-Apr-06 12:01:52 1010.200 12.5 56 3.9         1357.67
2017-Apr-06 13:01:44 1010.100 15.4 46 3.8         1357.67
2017-Apr-06 14:01:39 1009.700 16.9 40 3.2 1.9 ESE     1357.67
2017-Apr-06 15:01:57 1009.400 16.2 39 2.2 2.6 SSW     1357.67
2017-Apr-06 16:01:47 1008.600 17.5 35 1.8 2.5 ESE     1357.67
2017-Apr-06 17:01:56 1008.200 18.1 33 1.5         1357.67
2017-Apr-06 18:01:55 1007.900 17.4 33 0.9         1357.67
2017-Apr-06 19:01:56 1008.100 16.4 34 0.4         1357.67
2017-Apr-06 20:01:52 1008.200 13.6 39 -0.1         1357.67
2017-Apr-06 21:01:43 1008.100 10.5 47 -0.4         1357.67
2017-Apr-06 22:01:41 1009.100 8.3 54 -0.5         1357.67
2017-Apr-06 23:02:07 1009.700 6.9 57 -1.1         1357.67

Temperatura Máxima:18°    Temperatura Mínima:
Presión Máxima:1010.500 Hpa    Presión Mínima:1007.900 Hpa


Volver